sensor_id;sensor_type;location;lat;lon;timestamp;pressure;altitude;pressure_sealevel;temperature;humidity
73341;BME280;61578;52.002;5.468;2023-03-21T00:00:18;101607.53;;;11.16;90.15
73341;BME280;61578;52.002;5.468;2023-03-21T00:00:58;101621.25;;;11.24;90.22
73341;BME280;61578;52.002;5.468;2023-03-21T00:01:33;101611.56;;;11.23;90.45
73341;BME280;61578;52.002;5.468;2023-03-21T00:02:04;101618.69;;;11.23;90.38
73341;BME280;61578;52.002;5.468;2023-03-21T00:02:35;101616.88;;;11.23;90.37
73341;BME280;61578;52.002;5.468;2023-03-21T00:03:06;101607.28;;;11.21;90.32
73341;BME280;61578;52.002;5.468;2023-03-21T00:03:41;101614.31;;;11.22;90.11
73341;BME280;61578;52.002;5.468;2023-03-21T00:04:12;101615.16;;;11.22;90.45
73341;BME280;61578;52.002;5.468;2023-03-21T00:04:43;101612.50;;;11.22;90.58
73341;BME280;61578;52.002;5.468;2023-03-21T00:05:14;101616.88;;;11.23;90.07
73341;BME280;61578;52.002;5.468;2023-03-21T00:05:45;101616.03;;;11.23;90.33
73341;BME280;61578;52.002;5.468;2023-03-21T00:06:19;101612.69;;;11.19;90.31
73341;BME280;61578;52.002;5.468;2023-03-21T00:06:51;101614.38;;;11.20;90.36
73341;BME280;61578;52.002;5.468;2023-03-21T00:07:22;101588.66;;;11.05;90.23
73341;BME280;61578;52.002;5.468;2023-03-21T00:07:54;101612.50;;;11.22;90.13
73341;BME280;61578;52.002;5.468;2023-03-21T00:08:25;101574.84;;;10.98;90.36
73341;BME280;61578;52.002;5.468;2023-03-21T00:08:56;101580.84;;;11.02;90.27
73341;BME280;61578;52.002;5.468;2023-03-21T00:09:27;101616.09;;;11.21;90.07
73341;BME280;61578;52.002;5.468;2023-03-21T00:09:58;101570.72;;;10.93;90.19
73341;BME280;61578;52.002;5.468;2023-03-21T00:10:29;101608.19;;;11.20;90.35
73341;BME280;61578;52.002;5.468;2023-03-21T00:11:03;101595.19;;;11.15;90.25
73341;BME280;61578;52.002;5.468;2023-03-21T00:11:35;101615.16;;;11.22;90.28
73341;BME280;61578;52.002;5.468;2023-03-21T00:12:06;101611.66;;;11.22;89.79
73341;BME280;61578;52.002;5.468;2023-03-21T00:12:39;101610.78;;;11.21;90.39
73341;BME280;61578;52.002;5.468;2023-03-21T00:13:14;101615.25;;;11.21;90.02
73341;BME280;61578;52.002;5.468;2023-03-21T00:13:45;101615.25;;;11.21;90.16
73341;BME280;61578;52.002;5.468;2023-03-21T00:14:16;101608.31;;;11.18;90.31
73341;BME280;61578;52.002;5.468;2023-03-21T00:14:50;101619.81;;;11.19;90.27
73341;BME280;61578;52.002;5.468;2023-03-21T00:15:24;101601.28;;;11.17;90.30
73341;BME280;61578;52.002;5.468;2023-03-21T00:15:57;101608.19;;;11.20;90.29
73341;BME280;61578;52.002;5.468;2023-03-21T00:16:40;101608.19;;;11.20;90.40
73341;BME280;61578;52.002;5.468;2023-03-21T00:17:15;101601.28;;;11.17;90.38
73341;BME280;61578;52.002;5.468;2023-03-21T00:17:46;101608.31;;;11.18;90.36
73341;BME280;61578;52.002;5.468;2023-03-21T00:18:20;101600.34;;;11.18;90.37
73341;BME280;61578;52.002;5.468;2023-03-21T00:18:55;101594.41;;;11.13;90.64
73341;BME280;61578;52.002;5.468;2023-03-21T00:19:26;101603.75;;;11.20;90.66
73341;BME280;61578;52.002;5.468;2023-03-21T00:20:03;101602.81;;;11.21;90.56
73341;BME280;61578;52.002;5.468;2023-03-21T00:20:35;101603.66;;;11.22;90.27
73341;BME280;61578;52.002;5.468;2023-03-21T00:21:10;101601.94;;;11.21;90.69
73341;BME280;61578;52.002;5.468;2023-03-21T00:21:44;101595.88;;;11.19;90.50
73341;BME280;61578;52.002;5.468;2023-03-21T00:22:15;101597.69;;;11.18;90.61
73341;BME280;61578;52.002;5.468;2023-03-21T00:22:46;101602.81;;;11.21;90.39
73341;BME280;61578;52.002;5.468;2023-03-21T00:23:17;101607.28;;;11.21;90.77
73341;BME280;61578;52.002;5.468;2023-03-21T00:23:48;101601.00;;;11.22;90.24
73341;BME280;61578;52.002;5.468;2023-03-21T00:24:19;101592.38;;;11.18;90.18
73341;BME280;61578;52.002;5.468;2023-03-21T00:24:52;101595.97;;;11.17;90.64
73341;BME280;61578;52.002;5.468;2023-03-21T00:25:24;101597.50;;;11.21;90.58
73341;BME280;61578;52.002;5.468;2023-03-21T00:25:56;101601.09;;;11.20;90.33
73341;BME280;61578;52.002;5.468;2023-03-21T00:26:27;101593.38;;;11.16;90.66
73341;BME280;61578;52.002;5.468;2023-03-21T00:26:58;101609.06;;;11.20;90.30
73341;BME280;61578;52.002;5.468;2023-03-21T00:27:29;101598.53;;;11.19;90.41
73341;BME280;61578;52.002;5.468;2023-03-21T00:28:02;101598.53;;;11.19;90.49
73341;BME280;61578;52.002;5.468;2023-03-21T00:28:33;101596.81;;;11.18;90.52
73341;BME280;61578;52.002;5.468;2023-03-21T00:29:04;101594.09;;;11.19;90.61
73341;BME280;61578;52.002;5.468;2023-03-21T00:29:35;101597.69;;;11.18;90.56
73341;BME280;61578;52.002;5.468;2023-03-21T00:30:07;101588.06;;;11.16;90.44
73341;BME280;61578;52.002;5.468;2023-03-21T00:30:42;101596.75;;;11.19;90.18
73341;BME280;61578;52.002;5.468;2023-03-21T00:31:13;101593.13;;;11.20;90.37
73341;BME280;61578;52.002;5.468;2023-03-21T00:31:44;101595.78;;;11.20;90.39
73341;BME280;61578;52.002;5.468;2023-03-21T00:32:16;101592.38;;;11.18;90.72
73341;BME280;61578;52.002;5.468;2023-03-21T00:32:48;101596.91;;;11.16;90.64
73341;BME280;61578;52.002;5.468;2023-03-21T00:33:19;101587.13;;;11.17;90.64
73341;BME280;61578;52.002;5.468;2023-03-21T00:33:51;101596.81;;;11.18;90.62
73341;BME280;61578;52.002;5.468;2023-03-21T00:34:22;101596.81;;;11.18;90.75
73341;BME280;61578;52.002;5.468;2023-03-21T00:34:53;101591.59;;;11.16;90.58
73341;BME280;61578;52.002;5.468;2023-03-21T00:35:23;101593.22;;;11.19;90.31
73341;BME280;61578;52.002;5.468;2023-03-21T00:35:55;101595.97;;;11.17;90.70
73341;BME280;61578;52.002;5.468;2023-03-21T00:36:26;101591.44;;;11.19;90.41
73341;BME280;61578;52.002;5.468;2023-03-21T00:36:57;101592.38;;;11.18;90.40
73341;BME280;61578;52.002;5.468;2023-03-21T00:37:27;101605.75;;;11.17;91.02
73341;BME280;61578;52.002;5.468;2023-03-21T00:37:58;101586.19;;;11.18;90.62
73341;BME280;61578;52.002;5.468;2023-03-21T00:38:29;101584.47;;;11.17;90.33
73341;BME280;61578;52.002;5.468;2023-03-21T00:39:00;101580.00;;;11.17;90.35
73341;BME280;61578;52.002;5.468;2023-03-21T00:39:31;101588.94;;;11.16;90.23
73341;BME280;61578;52.002;5.468;2023-03-21T00:40:03;101590.72;;;11.16;90.37
73341;BME280;61578;52.002;5.468;2023-03-21T00:40:41;101583.84;;;11.12;90.53
73341;BME280;61578;52.002;5.468;2023-03-21T00:41:12;101576.75;;;11.12;90.66
73341;BME280;61578;52.002;5.468;2023-03-21T00:41:46;101593.47;;;11.14;90.60
73341;BME280;61578;52.002;5.468;2023-03-21T00:42:17;101590.81;;;11.14;90.61
73341;BME280;61578;52.002;5.468;2023-03-21T00:42:48;101549.44;;;10.93;90.58
73341;BME280;61578;52.002;5.468;2023-03-21T00:43:19;101586.34;;;11.15;90.61
73341;BME280;61578;52.002;5.468;2023-03-21T00:43:52;101588.16;;;11.14;90.79
73341;BME280;61578;52.002;5.468;2023-03-21T00:44:24;101584.63;;;11.14;90.53
73341;BME280;61578;52.002;5.468;2023-03-21T00:44:55;101581.28;;;11.10;90.51
73341;BME280;61578;52.002;5.468;2023-03-21T00:45:26;101575.22;;;11.08;90.53
73341;BME280;61578;52.002;5.468;2023-03-21T00:45:58;101583.94;;;11.10;90.54
73341;BME280;61578;52.002;5.468;2023-03-21T00:46:29;101588.16;;;11.14;90.57
73341;BME280;61578;52.002;5.468;2023-03-21T00:47:00;101583.69;;;11.15;90.63
73341;BME280;61578;52.002;5.468;2023-03-21T00:47:32;101575.22;;;11.08;90.59
73341;BME280;61578;52.002;5.468;2023-03-21T00:48:04;101587.22;;;11.15;90.19
73341;BME280;61578;52.002;5.468;2023-03-21T00:48:35;101584.56;;;11.15;90.51
73341;BME280;61578;52.002;5.468;2023-03-21T00:49:06;101579.31;;;11.14;90.56
73341;BME280;61578;52.002;5.468;2023-03-21T00:49:43;101580.19;;;11.14;90.25
73341;BME280;61578;52.002;5.468;2023-03-21T00:50:14;101576.56;;;11.15;90.46
73341;BME280;61578;52.002;5.468;2023-03-21T00:50:45;101577.50;;;11.14;90.40
73341;BME280;61578;52.002;5.468;2023-03-21T00:51:20;101570.84;;;11.07;90.76
73341;BME280;61578;52.002;5.468;2023-03-21T00:51:55;101578.53;;;11.12;90.33
73341;BME280;61578;52.002;5.468;2023-03-21T00:52:26;101580.25;;;11.13;90.65
73341;BME280;61578;52.002;5.468;2023-03-21T00:52:57;101585.66;;;11.11;90.43
73341;BME280;61578;52.002;5.468;2023-03-21T00:53:28;101569.97;;;11.06;90.65
73341;BME280;61578;52.002;5.468;2023-03-21T00:54:00;101581.38;;;11.09;90.75
73341;BME280;61578;52.002;5.468;2023-03-21T00:54:35;101581.28;;;11.10;90.86
73341;BME280;61578;52.002;5.468;2023-03-21T00:55:11;101568.16;;;11.07;90.92
73341;BME280;61578;52.002;5.468;2023-03-21T00:55:43;101574.44;;;11.06;90.87
73341;BME280;61578;52.002;5.468;2023-03-21T00:56:14;101581.38;;;11.09;90.75
73341;BME280;61578;52.002;5.468;2023-03-21T00:56:45;101573.50;;;11.07;90.64
73341;BME280;61578;52.002;5.468;2023-03-21T00:57:16;101575.97;;;11.10;90.80
73341;BME280;61578;52.002;5.468;2023-03-21T00:57:48;101578.72;;;11.09;90.77
73341;BME280;61578;52.002;5.468;2023-03-21T00:58:18;101574.28;;;11.09;90.69
73341;BME280;61578;52.002;5.468;2023-03-21T00:58:50;101576.94;;;11.09;90.65
73341;BME280;61578;52.002;5.468;2023-03-21T00:59:20;101569.97;;;11.06;90.65
73341;BME280;61578;52.002;5.468;2023-03-21T00:59:51;101562.94;;;11.05;90.76
73341;BME280;61578;52.002;5.468;2023-03-21T01:00:22;101578.63;;;11.10;90.31
73341;BME280;61578;52.002;5.468;2023-03-21T01:00:53;101567.97;;;11.10;90.88
73341;BME280;61578;52.002;5.468;2023-03-21T01:01:24;101565.44;;;11.09;90.51
73341;BME280;61578;52.002;5.468;2023-03-21T01:01:56;101569.97;;;11.06;90.63
73341;BME280;61578;52.002;5.468;2023-03-21T01:02:29;101571.84;;;11.04;90.58
73341;BME280;61578;52.002;5.468;2023-03-21T01:03:00;101552.53;;;11.01;90.39
73341;BME280;61578;52.002;5.468;2023-03-21T01:03:35;101554.59;;;10.96;90.50
73341;BME280;61578;52.002;5.468;2023-03-21T01:04:13;101524.25;;;10.84;91.04
73341;BME280;61578;52.002;5.468;2023-03-21T01:04:45;101562.16;;;11.03;90.83
73341;BME280;61578;52.002;5.468;2023-03-21T01:05:16;101496.81;;;10.68;90.60
73341;BME280;61578;52.002;5.468;2023-03-21T01:06:10;101563.63;;;11.09;90.48
73341;BME280;61578;52.002;5.468;2023-03-21T01:06:43;101558.56;;;11.04;90.49
73341;BME280;61578;52.002;5.468;2023-03-21T01:07:14;101514.56;;;10.83;90.60
73341;BME280;61578;52.002;5.468;2023-03-21T01:07:45;101559.41;;;11.05;90.57
73341;BME280;61578;52.002;5.468;2023-03-21T01:08:18;101562.84;;;11.07;90.57
73341;BME280;61578;52.002;5.468;2023-03-21T01:08:49;101566.44;;;11.06;90.58
73341;BME280;61578;52.002;5.468;2023-03-21T01:09:22;101562.06;;;11.05;90.71
73341;BME280;61578;52.002;5.468;2023-03-21T01:09:53;101525.09;;;10.85;90.43
73341;BME280;61578;52.002;5.468;2023-03-21T01:10:24;101563.72;;;11.07;90.49
73341;BME280;61578;52.002;5.468;2023-03-21T01:10:56;101557.53;;;11.07;90.45
73341;BME280;61578;52.002;5.468;2023-03-21T01:11:35;101555.97;;;11.03;90.83
73341;BME280;61578;52.002;5.468;2023-03-21T01:12:06;101556.91;;;11.02;90.65
73341;BME280;61578;52.002;5.468;2023-03-21T01:12:43;101547.31;;;10.99;90.80
73341;BME280;61578;52.002;5.468;2023-03-21T01:13:16;101558.56;;;11.04;90.46
73341;BME280;61578;52.002;5.468;2023-03-21T01:13:48;101550.66;;;11.03;90.59
73341;BME280;61578;52.002;5.468;2023-03-21T01:14:22;101553.31;;;11.03;91.00
73341;BME280;61578;52.002;5.468;2023-03-21T01:14:53;101550.94;;;10.98;90.74
73341;BME280;61578;52.002;5.468;2023-03-21T01:15:23;101554.09;;;11.05;90.58
73341;BME280;61578;52.002;5.468;2023-03-21T01:15:56;101549.66;;;11.05;90.63
73341;BME280;61578;52.002;5.468;2023-03-21T01:16:28;101555.81;;;11.06;90.30
73341;BME280;61578;52.002;5.468;2023-03-21T01:16:59;101556.69;;;11.06;90.55
73341;BME280;61578;52.002;5.468;2023-03-21T01:17:30;101554.09;;;11.05;90.37
73341;BME280;61578;52.002;5.468;2023-03-21T01:18:01;101555.97;;;11.03;90.50
73341;BME280;61578;52.002;5.468;2023-03-21T01:18:35;101547.22;;;11.01;90.33
73341;BME280;61578;52.002;5.468;2023-03-21T01:19:11;101556.91;;;11.02;90.54
73341;BME280;61578;52.002;5.468;2023-03-21T01:19:45;101561.44;;;11.00;90.49
73341;BME280;61578;52.002;5.468;2023-03-21T01:20:16;101552.53;;;11.01;90.54
73341;BME280;61578;52.002;5.468;2023-03-21T01:20:47;101525.81;;;10.88;90.60
73341;BME280;61578;52.002;5.468;2023-03-21T01:21:19;101548.34;;;10.97;90.58
73341;BME280;61578;52.002;5.468;2023-03-21T01:21:50;101550.16;;;10.96;90.84
73341;BME280;61578;52.002;5.468;2023-03-21T01:22:21;101543.03;;;10.97;91.07
73341;BME280;61578;52.002;5.468;2023-03-21T01:22:52;101546.56;;;10.97;90.71
73341;BME280;61578;52.002;5.468;2023-03-21T01:23:24;101498.41;;;10.70;90.56
73341;BME280;61578;52.002;5.468;2023-03-21T01:23:56;101544.50;;;11.02;90.49
73341;BME280;61578;52.002;5.468;2023-03-21T01:24:26;101555.13;;;11.02;90.37
73341;BME280;61578;52.002;5.468;2023-03-21T01:24:57;101543.81;;;10.99;90.39
73341;BME280;61578;52.002;5.468;2023-03-21T01:25:28;101548.28;;;10.98;90.51
73341;BME280;61578;52.002;5.468;2023-03-21T01:25:59;101551.00;;;10.97;90.68
73341;BME280;61578;52.002;5.468;2023-03-21T01:26:30;101551.31;;;10.91;90.50
73341;BME280;61578;52.002;5.468;2023-03-21T01:27:02;101545.78;;;10.95;90.38
73341;BME280;61578;52.002;5.468;2023-03-21T01:27:33;101540.19;;;11.00;90.65
73341;BME280;61578;52.002;5.468;2023-03-21T01:28:04;101542.00;;;10.99;90.46
73341;BME280;61578;52.002;5.468;2023-03-21T01:28:37;101538.81;;;10.93;90.46
73341;BME280;61578;52.002;5.468;2023-03-21T01:29:10;101533.19;;;10.99;90.75
73341;BME280;61578;52.002;5.468;2023-03-21T01:29:41;101542.09;;;10.98;90.55
73341;BME280;61578;52.002;5.468;2023-03-21T01:30:12;101547.31;;;10.99;90.66
73341;BME280;61578;52.002;5.468;2023-03-21T01:30:45;101537.72;;;10.97;90.73
73341;BME280;61578;52.002;5.468;2023-03-21T01:31:17;101541.06;;;11.00;90.40
73341;BME280;61578;52.002;5.468;2023-03-21T01:31:48;101532.41;;;10.97;90.30
73341;BME280;61578;52.002;5.468;2023-03-21T01:32:18;101538.50;;;10.99;90.36
73341;BME280;61578;52.002;5.468;2023-03-21T01:32:50;101538.66;;;10.96;90.20
73341;BME280;61578;52.002;5.468;2023-03-21T01:33:22;101541.06;;;11.00;90.58
73341;BME280;61578;52.002;5.468;2023-03-21T01:33:53;101536.88;;;10.96;90.23
73341;BME280;61578;52.002;5.468;2023-03-21T01:34:24;101540.38;;;10.97;90.57
73341;BME280;61578;52.002;5.468;2023-03-21T01:34:55;101539.34;;;10.99;90.43
73341;BME280;61578;52.002;5.468;2023-03-21T01:35:26;101546.72;;;10.94;90.38
73341;BME280;61578;52.002;5.468;2023-03-21T01:35:59;101542.09;;;10.98;90.07
73341;BME280;61578;52.002;5.468;2023-03-21T01:36:30;101533.19;;;10.99;90.24
73341;BME280;61578;52.002;5.468;2023-03-21T01:37:01;101523.66;;;10.95;89.99
73341;BME280;61578;52.002;5.468;2023-03-21T01:37:32;101542.09;;;10.98;90.40
73341;BME280;61578;52.002;5.468;2023-03-21T01:38:03;101534.13;;;10.98;90.39
73341;BME280;61578;52.002;5.468;2023-03-21T01:38:34;101539.34;;;10.99;90.23
73341;BME280;61578;52.002;5.468;2023-03-21T01:39:05;101531.22;;;11.02;90.19
73341;BME280;61578;52.002;5.468;2023-03-21T01:39:36;101531.28;;;11.01;90.38
73341;BME280;61578;52.002;5.468;2023-03-21T01:40:07;101530.53;;;10.99;90.01
73341;BME280;61578;52.002;5.468;2023-03-21T01:40:45;101531.38;;;10.99;90.36
73341;BME280;61578;52.002;5.468;2023-03-21T01:41:28;101535.75;;;11.00;90.07
73341;BME280;61578;52.002;5.468;2023-03-21T01:42:01;101534.03;;;10.99;90.39
73341;BME280;61578;52.002;5.468;2023-03-21T01:42:32;101533.94;;;11.01;90.24
73341;BME280;61578;52.002;5.468;2023-03-21T01:43:26;101533.09;;;11.00;90.04
73341;BME280;61578;52.002;5.468;2023-03-21T01:44:00;101527.69;;;11.02;90.20
73341;BME280;61578;52.002;5.468;2023-03-21T01:44:31;101531.28;;;11.01;90.19
73341;BME280;61578;52.002;5.468;2023-03-21T01:45:57;101516.63;;;10.94;90.04
73341;BME280;61578;52.002;5.468;2023-03-21T01:46:31;101533.78;;;11.04;89.96
73341;BME280;61578;52.002;5.468;2023-03-21T01:47:05;101527.69;;;11.02;90.07
73341;BME280;61578;52.002;5.468;2023-03-21T01:47:35;101523.31;;;11.01;89.96
73341;BME280;61578;52.002;5.468;2023-03-21T01:48:06;101519.06;;;10.98;90.07
73341;BME280;61578;52.002;5.468;2023-03-21T01:48:43;101527.75;;;11.00;89.87
73341;BME280;61578;52.002;5.468;2023-03-21T01:49:36;101528.72;;;10.99;89.92
73341;BME280;61578;52.002;5.468;2023-03-21T01:50:10;101518.34;;;10.95;89.64
73341;BME280;61578;52.002;5.468;2023-03-21T01:50:42;101513.97;;;10.94;89.59
73341;BME280;61578;52.002;5.468;2023-03-21T01:51:13;101520.84;;;10.98;90.06
73341;BME280;61578;52.002;5.468;2023-03-21T01:51:51;101522.72;;;10.96;90.06
73341;BME280;61578;52.002;5.468;2023-03-21T01:52:31;101520.06;;;10.96;89.99
73341;BME280;61578;52.002;5.468;2023-03-21T01:53:06;101520.94;;;10.96;90.07
73341;BME280;61578;52.002;5.468;2023-03-21T01:53:40;101513.13;;;10.93;90.22
73341;BME280;61578;52.002;5.468;2023-03-21T01:54:21;101517.41;;;10.96;89.85
73341;BME280;61578;52.002;5.468;2023-03-21T01:54:56;101519.22;;;10.95;90.00
73341;BME280;61578;52.002;5.468;2023-03-21T01:55:28;101512.25;;;10.93;90.07
73341;BME280;61578;52.002;5.468;2023-03-21T01:56:07;101517.50;;;10.94;90.24
73341;BME280;61578;52.002;5.468;2023-03-21T01:56:45;101513.81;;;10.97;90.23
73341;BME280;61578;52.002;5.468;2023-03-21T01:57:41;101520.06;;;10.96;90.04
73341;BME280;61578;52.002;5.468;2023-03-21T01:58:18;101517.56;;;10.93;90.12
73341;BME280;61578;52.002;5.468;2023-03-21T01:58:52;101516.63;;;10.94;89.82
73341;BME280;61578;52.002;5.468;2023-03-21T01:59:41;101510.47;;;10.93;90.20
73341;BME280;61578;52.002;5.468;2023-03-21T02:00:15;101512.19;;;10.94;90.01
73341;BME280;61578;52.002;5.468;2023-03-21T02:00:49;101511.25;;;10.95;90.19
73341;BME280;61578;52.002;5.468;2023-03-21T02:01:22;101508.59;;;10.95;90.33
73341;BME280;61578;52.002;5.468;2023-03-21T02:01:57;101507.63;;;10.96;90.06
73341;BME280;61578;52.002;5.468;2023-03-21T02:02:40;101468.88;;;10.77;90.03
73341;BME280;61578;52.002;5.468;2023-03-21T02:03:20;101510.22;;;10.98;89.91
73341;BME280;61578;52.002;5.468;2023-03-21T02:03:52;101508.41;;;10.98;89.92
73341;BME280;61578;52.002;5.468;2023-03-21T02:04:24;101504.91;;;10.98;90.18
73341;BME280;61578;52.002;5.468;2023-03-21T02:05:01;101511.06;;;10.98;89.85
73341;BME280;61578;52.002;5.468;2023-03-21T02:06:17;101498.66;;;10.99;89.92
73341;BME280;61578;52.002;5.468;2023-03-21T02:07:01;101503.00;;;11.00;89.89
73341;BME280;61578;52.002;5.468;2023-03-21T02:07:37;101509.78;;;11.05;89.90
73341;BME280;61578;52.002;5.468;2023-03-21T02:08:11;101505.50;;;11.03;89.36
73341;BME280;61578;52.002;5.468;2023-03-21T02:08:42;101504.63;;;11.02;89.54
73341;BME280;61578;52.002;5.468;2023-03-21T02:09:19;101492.03;;;11.06;89.48
73341;BME280;61578;52.002;5.468;2023-03-21T02:09:54;101505.41;;;11.04;89.71
73341;BME280;61578;52.002;5.468;2023-03-21T02:10:30;101501.31;;;10.99;89.67
73341;BME280;61578;52.002;5.468;2023-03-21T02:11:03;101498.66;;;10.99;89.66
73341;BME280;61578;52.002;5.468;2023-03-21T02:11:36;101494.16;;;10.99;89.46
73341;BME280;61578;52.002;5.468;2023-03-21T02:12:08;101503.00;;;11.00;90.00
73341;BME280;61578;52.002;5.468;2023-03-21T02:12:43;101502.13;;;10.99;89.65
73341;BME280;61578;52.002;5.468;2023-03-21T02:13:14;101509.28;;;10.99;89.88
73341;BME280;61578;52.002;5.468;2023-03-21T02:13:45;101491.34;;;11.02;89.42
73341;BME280;61578;52.002;5.468;2023-03-21T02:14:18;101496.75;;;11.01;89.83
73341;BME280;61578;52.002;5.468;2023-03-21T02:14:51;101494.34;;;10.96;89.66
73341;BME280;61578;52.002;5.468;2023-03-21T02:15:25;101502.31;;;10.96;89.64
73341;BME280;61578;52.002;5.468;2023-03-21T02:16:01;101498.72;;;10.97;90.02
73341;BME280;61578;52.002;5.468;2023-03-21T02:17:32;101492.47;;;10.98;90.06
73341;BME280;61578;52.002;5.468;2023-03-21T02:18:26;101495.22;;;10.97;89.82
73341;BME280;61578;52.002;5.468;2023-03-21T02:25:48;101516.47;;;10.97;89.94
73341;BME280;61578;52.002;5.468;2023-03-21T02:27:15;101493.34;;;10.99;90.53
73341;BME280;61578;52.002;5.468;2023-03-21T02:28:04;101448.31;;;10.80;90.43
73341;BME280;61578;52.002;5.468;2023-03-21T02:28:51;101494.28;;;10.98;90.03
73341;BME280;61578;52.002;5.468;2023-03-21T02:39:14;101466.75;;;10.99;90.08
73341;BME280;61578;52.002;5.468;2023-03-21T02:40:02;101464.34;;;10.94;90.00
73341;BME280;61578;52.002;5.468;2023-03-21T02:40:44;101465.91;;;10.98;90.24
73341;BME280;61578;52.002;5.468;2023-03-21T02:43:27;101469.31;;;11.00;90.12
73341;BME280;61578;52.002;5.468;2023-03-21T02:45:06;101463.91;;;11.02;90.12
73341;BME280;61578;52.002;5.468;2023-03-21T02:45:53;101465.06;;;10.98;90.05
73341;BME280;61578;52.002;5.468;2023-03-21T02:46:39;101470.94;;;11.03;89.99
73341;BME280;61578;52.002;5.468;2023-03-21T02:47:45;101465.78;;;11.00;90.10
73341;BME280;61578;52.002;5.468;2023-03-21T02:48:25;101459.81;;;10.96;90.13
73341;BME280;61578;52.002;5.468;2023-03-21T02:50:11;101460.59;;;10.98;89.99
73341;BME280;61578;52.002;5.468;2023-03-21T02:51:09;101416.00;;;10.72;89.94
73341;BME280;61578;52.002;5.468;2023-03-21T02:51:47;101464.00;;;11.00;90.26
73341;BME280;61578;52.002;5.468;2023-03-21T02:52:25;101452.88;;;10.94;90.01
73341;BME280;61578;52.002;5.468;2023-03-21T02:53:03;101461.53;;;10.97;90.07
73341;BME280;61578;52.002;5.468;2023-03-21T02:53:44;101458.97;;;10.96;90.21
73341;BME280;61578;52.002;5.468;2023-03-21T02:54:23;101451.16;;;10.93;90.13
73341;BME280;61578;52.002;5.468;2023-03-21T02:54:59;101461.53;;;10.97;90.38
73341;BME280;61578;52.002;5.468;2023-03-21T02:55:36;101460.69;;;10.97;90.37
73341;BME280;61578;52.002;5.468;2023-03-21T02:56:11;101449.34;;;10.93;90.34
73341;BME280;61578;52.002;5.468;2023-03-21T02:56:46;101460.59;;;10.98;90.02
73341;BME280;61578;52.002;5.468;2023-03-21T02:57:20;101464.09;;;10.99;90.40
73341;BME280;61578;52.002;5.468;2023-03-21T02:57:54;101458.78;;;10.99;90.33
73341;BME280;61578;52.002;5.468;2023-03-21T02:58:28;101458.97;;;10.96;89.96
73341;BME280;61578;52.002;5.468;2023-03-21T02:59:03;101456.22;;;10.97;90.10
73341;BME280;61578;52.002;5.468;2023-03-21T02:59:37;101453.72;;;10.94;89.94
73341;BME280;61578;52.002;5.468;2023-03-21T03:00:12;101457.16;;;10.96;90.15
73341;BME280;61578;52.002;5.468;2023-03-21T03:00:49;101456.13;;;10.99;89.97
73341;BME280;61578;52.002;5.468;2023-03-21T03:01:24;101448.16;;;10.99;90.02
73341;BME280;61578;52.002;5.468;2023-03-21T03:01:57;101457.06;;;10.98;89.96
73341;BME280;61578;52.002;5.468;2023-03-21T03:02:30;101453.56;;;10.97;90.02
73341;BME280;61578;52.002;5.468;2023-03-21T03:03:01;101451.06;;;10.94;89.98
73341;BME280;61578;52.002;5.468;2023-03-21T03:03:34;101455.44;;;10.95;90.33
73341;BME280;61578;52.002;5.468;2023-03-21T03:04:22;101458.09;;;10.95;90.12
73341;BME280;61578;52.002;5.468;2023-03-21T03:04:54;101452.78;;;10.95;90.50
73341;BME280;61578;52.002;5.468;2023-03-21T03:05:28;101454.50;;;10.96;90.20
73341;BME280;61578;52.002;5.468;2023-03-21T03:06:14;101451.00;;;10.96;89.92
73341;BME280;61578;52.002;5.468;2023-03-21T03:08:26;101454.41;;;10.98;90.15
73341;BME280;61578;52.002;5.468;2023-03-21T03:10:44;101409.84;;;10.72;90.16
73341;BME280;61578;52.002;5.468;2023-03-21T03:11:43;101453.56;;;10.97;90.42
73341;BME280;61578;52.002;5.468;2023-03-21T03:12:32;101451.94;;;10.95;90.45
73341;BME280;61578;52.002;5.468;2023-03-21T03:14:40;101465.78;;;11.00;89.99
73341;BME280;61578;52.002;5.468;2023-03-21T03:18:12;101454.59;;;10.95;89.89
73341;BME280;61578;52.002;5.468;2023-03-21T03:19:00;101456.47;;;10.93;90.00
73341;BME280;61578;52.002;5.468;2023-03-21T03:22:25;101443.53;;;10.87;90.28
73341;BME280;61578;52.002;5.468;2023-03-21T03:23:12;101456.47;;;10.93;90.20
73341;BME280;61578;52.002;5.468;2023-03-21T03:24:12;101455.53;;;10.94;90.38
73341;BME280;61578;52.002;5.468;2023-03-21T03:25:06;101433.06;;;10.84;90.32
73341;BME280;61578;52.002;5.468;2023-03-21T03:26:32;101450.22;;;10.94;90.30
73341;BME280;61578;52.002;5.468;2023-03-21T03:26:57;101445.84;;;10.93;90.02
73341;BME280;61578;52.002;5.468;2023-03-21T03:27:43;101443.97;;;10.95;89.74
73341;BME280;61578;52.002;5.468;2023-03-21T03:28:23;101444.13;;;10.92;90.20
73341;BME280;61578;52.002;5.468;2023-03-21T03:29:03;101450.22;;;10.94;89.92
73341;BME280;61578;52.002;5.468;2023-03-21T03:29:45;101446.78;;;10.92;89.94
73341;BME280;61578;52.002;5.468;2023-03-21T03:30:18;101440.59;;;10.91;89.88
73341;BME280;61578;52.002;5.468;2023-03-21T03:30:51;101442.47;;;10.89;90.00
73341;BME280;61578;52.002;5.468;2023-03-21T03:31:32;101439.75;;;10.91;89.87
73341;BME280;61578;52.002;5.468;2023-03-21T03:32:20;101442.41;;;10.91;90.08
73341;BME280;61578;52.002;5.468;2023-03-21T03:33:02;101444.19;;;10.90;90.25
73341;BME280;61578;52.002;5.468;2023-03-21T03:33:48;101449.34;;;10.93;90.29
73341;BME280;61578;52.002;5.468;2023-03-21T03:34:25;101443.19;;;10.93;90.08
73341;BME280;61578;52.002;5.468;2023-03-21T03:35:04;101444.97;;;10.92;89.73
73341;BME280;61578;52.002;5.468;2023-03-21T03:35:36;101439.94;;;10.88;89.96
73341;BME280;61578;52.002;5.468;2023-03-21T03:36:11;101445.06;;;10.91;90.11
73341;BME280;61578;52.002;5.468;2023-03-21T03:36:48;101439.00;;;10.89;90.03